Limaville, Ohio
Current Conditions -  °F | °C
As of 8:51 AM on Thursday 30 Oct 2014 (Local Time) from KCAK Reporting Station
Haze Haze  
Wind Chill: 37°   Ceiling: 200
Heat Index: 40°   Visibility: 2mi
Dew Point: 37°   Wind: 5mph
Humidity: 89%   Direction: 290°WNW
Pressure: 30.11"   Gusts: NA
Location:  40.98°N, 81.15°W
Report Text: KCAK 301251Z 29004KT 2SM BR OVC002 04/03 A3011 RMK AO2 SLP203 RAB00E50 P0000 T00440028
Loading
Personal Weather Stations






























Interactive Weather Map
Tropical Storm Tracking
New forecast layout! Learn more

10-Day Weather Forecast

Advertisements
Track Severe Weather on mobile